sensor_id;sensor_type;location;lat;lon;timestamp;temperature;humidity
23079;DHT22;11707;50.830;4.364;2023-07-13T00:01:51;16.90;54.40
23079;DHT22;11707;50.830;4.364;2023-07-13T00:04:22;16.90;52.10
23079;DHT22;11707;50.830;4.364;2023-07-13T00:06:48;16.80;56.70
23079;DHT22;11707;50.830;4.364;2023-07-13T00:09:18;16.70;60.60
23079;DHT22;11707;50.830;4.364;2023-07-13T00:11:51;16.80;60.60
23079;DHT22;11707;50.830;4.364;2023-07-13T00:14:20;16.80;59.40
23079;DHT22;11707;50.830;4.364;2023-07-13T00:16:48;16.80;62.20
23079;DHT22;11707;50.830;4.364;2023-07-13T00:19:14;16.80;64.90
23079;DHT22;11707;50.830;4.364;2023-07-13T00:21:40;16.80;65.80
23079;DHT22;11707;50.830;4.364;2023-07-13T00:24:11;16.80;68.70
23079;DHT22;11707;50.830;4.364;2023-07-13T00:26:39;16.90;64.80
23079;DHT22;11707;50.830;4.364;2023-07-13T00:29:11;16.80;67.00
23079;DHT22;11707;50.830;4.364;2023-07-13T00:31:37;16.70;72.40
23079;DHT22;11707;50.830;4.364;2023-07-13T00:34:06;16.70;73.70
23079;DHT22;11707;50.830;4.364;2023-07-13T00:36:32;16.60;75.30
23079;DHT22;11707;50.830;4.364;2023-07-13T00:39:00;16.60;78.00
23079;DHT22;11707;50.830;4.364;2023-07-13T00:41:25;16.60;79.90
23079;DHT22;11707;50.830;4.364;2023-07-13T00:43:53;16.70;77.80
23079;DHT22;11707;50.830;4.364;2023-07-13T00:46:33;16.60;78.90
23079;DHT22;11707;50.830;4.364;2023-07-13T00:49:05;16.60;82.10
23079;DHT22;11707;50.830;4.364;2023-07-13T00:51:36;16.50;83.40
23079;DHT22;11707;50.830;4.364;2023-07-13T00:54:08;16.40;85.60
23079;DHT22;11707;50.830;4.364;2023-07-13T00:56:38;16.30;91.30
23079;DHT22;11707;50.830;4.364;2023-07-13T00:59:07;16.40;90.80
23079;DHT22;11707;50.830;4.364;2023-07-13T01:01:33;16.50;86.30
23079;DHT22;11707;50.830;4.364;2023-07-13T01:04:01;16.40;85.90
23079;DHT22;11707;50.830;4.364;2023-07-13T01:06:27;16.40;88.00
23079;DHT22;11707;50.830;4.364;2023-07-13T01:08:53;16.30;90.50
23079;DHT22;11707;50.830;4.364;2023-07-13T01:11:21;16.20;91.90
23079;DHT22;11707;50.830;4.364;2023-07-13T01:13:48;16.20;92.40
23079;DHT22;11707;50.830;4.364;2023-07-13T01:16:24;16.30;92.80
23079;DHT22;11707;50.830;4.364;2023-07-13T01:18:50;16.30;91.40
23079;DHT22;11707;50.830;4.364;2023-07-13T01:21:16;16.20;91.80
23079;DHT22;11707;50.830;4.364;2023-07-13T01:23:42;16.20;93.00
23079;DHT22;11707;50.830;4.364;2023-07-13T01:26:12;16.20;93.40
23079;DHT22;11707;50.830;4.364;2023-07-13T01:28:38;16.40;92.70
23079;DHT22;11707;50.830;4.364;2023-07-13T01:31:04;16.40;90.70
23079;DHT22;11707;50.830;4.364;2023-07-13T01:33:30;16.20;93.00
23079;DHT22;11707;50.830;4.364;2023-07-13T01:35:56;16.20;93.60
23079;DHT22;11707;50.830;4.364;2023-07-13T01:38:24;16.30;93.60
23079;DHT22;11707;50.830;4.364;2023-07-13T01:40:51;16.40;92.00
23079;DHT22;11707;50.830;4.364;2023-07-13T01:43:18;16.30;93.20
23079;DHT22;11707;50.830;4.364;2023-07-13T01:45:47;16.30;94.20
23079;DHT22;11707;50.830;4.364;2023-07-13T01:48:13;16.20;95.00
23079;DHT22;11707;50.830;4.364;2023-07-13T01:50:39;16.10;96.20
23079;DHT22;11707;50.830;4.364;2023-07-13T01:53:07;16.00;96.90
23079;DHT22;11707;50.830;4.364;2023-07-13T01:55:34;16.10;98.40
23079;DHT22;11707;50.830;4.364;2023-07-13T01:57:59;16.00;97.50
23079;DHT22;11707;50.830;4.364;2023-07-13T02:00:25;15.90;99.80
23079;DHT22;11707;50.830;4.364;2023-07-13T02:02:53;15.90;99.90
23079;DHT22;11707;50.830;4.364;2023-07-13T02:05:19;15.90;99.90
23079;DHT22;11707;50.830;4.364;2023-07-13T02:07:45;15.80;99.90
23079;DHT22;11707;50.830;4.364;2023-07-13T02:10:11;15.90;99.90
23079;DHT22;11707;50.830;4.364;2023-07-13T02:12:37;15.90;99.90
23079;DHT22;11707;50.830;4.364;2023-07-13T02:15:04;15.90;99.90
23079;DHT22;11707;50.830;4.364;2023-07-13T02:17:34;16.00;99.50
23079;DHT22;11707;50.830;4.364;2023-07-13T02:20:00;15.90;99.80
23079;DHT22;11707;50.830;4.364;2023-07-13T02:22:26;16.00;99.90
23079;DHT22;11707;50.830;4.364;2023-07-13T02:24:52;16.00;99.90
23079;DHT22;11707;50.830;4.364;2023-07-13T02:27:20;16.00;99.50
23079;DHT22;11707;50.830;4.364;2023-07-13T02:29:46;15.90;99.90
23079;DHT22;11707;50.830;4.364;2023-07-13T02:32:12;15.80;99.90
23079;DHT22;11707;50.830;4.364;2023-07-13T02:34:41;15.90;99.90
23079;DHT22;11707;50.830;4.364;2023-07-13T02:37:09;15.80;99.90
23079;DHT22;11707;50.830;4.364;2023-07-13T02:39:37;15.80;99.90
23079;DHT22;11707;50.830;4.364;2023-07-13T02:42:03;15.70;99.90
23079;DHT22;11707;50.830;4.364;2023-07-13T02:44:28;15.80;99.90
23079;DHT22;11707;50.830;4.364;2023-07-13T02:46:54;15.70;99.90
23079;DHT22;11707;50.830;4.364;2023-07-13T02:49:20;15.80;99.90
23079;DHT22;11707;50.830;4.364;2023-07-13T02:51:45;15.90;99.90
23079;DHT22;11707;50.830;4.364;2023-07-13T02:54:11;15.80;99.90
23079;DHT22;11707;50.830;4.364;2023-07-13T02:56:39;15.80;99.90
23079;DHT22;11707;50.830;4.364;2023-07-13T02:59:05;15.60;99.90
23079;DHT22;11707;50.830;4.364;2023-07-13T03:01:31;15.60;99.90
23079;DHT22;11707;50.830;4.364;2023-07-13T03:03:58;15.70;99.90
23079;DHT22;11707;50.830;4.364;2023-07-13T03:06:23;15.90;99.90
23079;DHT22;11707;50.830;4.364;2023-07-13T03:08:50;16.00;99.90
23079;DHT22;11707;50.830;4.364;2023-07-13T03:11:18;15.90;99.90
23079;DHT22;11707;50.830;4.364;2023-07-13T03:13:44;15.80;99.90
23079;DHT22;11707;50.830;4.364;2023-07-13T03:16:11;15.90;99.90
23079;DHT22;11707;50.830;4.364;2023-07-13T03:18:37;15.70;99.90
23079;DHT22;11707;50.830;4.364;2023-07-13T03:21:05;15.70;99.90
23079;DHT22;11707;50.830;4.364;2023-07-13T03:23:34;15.70;99.90
23079;DHT22;11707;50.830;4.364;2023-07-13T03:26:09;15.80;99.90
23079;DHT22;11707;50.830;4.364;2023-07-13T03:28:35;15.90;99.90
23079;DHT22;11707;50.830;4.364;2023-07-13T03:31:22;15.90;99.90
23079;DHT22;11707;50.830;4.364;2023-07-13T03:33:48;15.90;99.90
23079;DHT22;11707;50.830;4.364;2023-07-13T03:36:19;15.90;99.90
23079;DHT22;11707;50.830;4.364;2023-07-13T03:38:47;16.00;99.90
23079;DHT22;11707;50.830;4.364;2023-07-13T03:41:13;15.80;99.90
23079;DHT22;11707;50.830;4.364;2023-07-13T03:43:39;15.70;99.90
23079;DHT22;11707;50.830;4.364;2023-07-13T03:46:05;15.60;99.90
23079;DHT22;11707;50.830;4.364;2023-07-13T03:48:30;15.60;99.90
23079;DHT22;11707;50.830;4.364;2023-07-13T03:50:56;15.70;99.90
23079;DHT22;11707;50.830;4.364;2023-07-13T03:53:24;15.70;99.90
23079;DHT22;11707;50.830;4.364;2023-07-13T03:55:52;15.70;99.90
23079;DHT22;11707;50.830;4.364;2023-07-13T04:00:53;15.70;99.90
23079;DHT22;11707;50.830;4.364;2023-07-13T04:03:19;15.70;99.90
23079;DHT22;11707;50.830;4.364;2023-07-13T04:05:44;15.70;99.90
23079;DHT22;11707;50.830;4.364;2023-07-13T04:08:10;15.80;99.90
23079;DHT22;11707;50.830;4.364;2023-07-13T04:10:36;15.80;99.90
23079;DHT22;11707;50.830;4.364;2023-07-13T04:13:03;15.80;99.90
23079;DHT22;11707;50.830;4.364;2023-07-13T04:15:31;15.80;99.90
23079;DHT22;11707;50.830;4.364;2023-07-13T04:17:57;15.90;99.90
23079;DHT22;11707;50.830;4.364;2023-07-13T04:20:23;16.00;99.90
23079;DHT22;11707;50.830;4.364;2023-07-13T04:22:49;16.00;99.90
23079;DHT22;11707;50.830;4.364;2023-07-13T04:25:15;16.10;99.90
23079;DHT22;11707;50.830;4.364;2023-07-13T04:27:41;16.10;99.90
23079;DHT22;11707;50.830;4.364;2023-07-13T04:30:08;16.10;99.90
23079;DHT22;11707;50.830;4.364;2023-07-13T04:32:33;16.00;99.90
23079;DHT22;11707;50.830;4.364;2023-07-13T04:34:59;16.00;99.90
23079;DHT22;11707;50.830;4.364;2023-07-13T04:37:26;16.00;99.90
23079;DHT22;11707;50.830;4.364;2023-07-13T04:39:52;16.10;99.90
23079;DHT22;11707;50.830;4.364;2023-07-13T04:42:18;16.00;99.90
23079;DHT22;11707;50.830;4.364;2023-07-13T04:44:51;16.00;99.90
23079;DHT22;11707;50.830;4.364;2023-07-13T04:47:18;16.10;99.90
23079;DHT22;11707;50.830;4.364;2023-07-13T04:49:47;16.10;99.90
23079;DHT22;11707;50.830;4.364;2023-07-13T04:52:12;16.10;99.90
23079;DHT22;11707;50.830;4.364;2023-07-13T04:54:38;16.20;99.90
23079;DHT22;11707;50.830;4.364;2023-07-13T04:57:07;16.10;99.90
23079;DHT22;11707;50.830;4.364;2023-07-13T04:59:33;16.00;99.90
23079;DHT22;11707;50.830;4.364;2023-07-13T05:01:59;16.00;99.90
23079;DHT22;11707;50.830;4.364;2023-07-13T05:04:24;16.10;99.90
23079;DHT22;11707;50.830;4.364;2023-07-13T05:06:50;16.10;99.90
23079;DHT22;11707;50.830;4.364;2023-07-13T05:09:16;16.10;99.90
23079;DHT22;11707;50.830;4.364;2023-07-13T05:11:42;16.10;99.90
23079;DHT22;11707;50.830;4.364;2023-07-13T05:14:08;16.00;99.90
23079;DHT22;11707;50.830;4.364;2023-07-13T05:16:35;15.80;99.90
23079;DHT22;11707;50.830;4.364;2023-07-13T05:19:01;15.90;99.90
23079;DHT22;11707;50.830;4.364;2023-07-13T05:21:32;16.00;99.90
23079;DHT22;11707;50.830;4.364;2023-07-13T05:23:58;16.00;99.90
23079;DHT22;11707;50.830;4.364;2023-07-13T05:26:26;16.10;99.90
23079;DHT22;11707;50.830;4.364;2023-07-13T05:28:52;16.20;99.90
23079;DHT22;11707;50.830;4.364;2023-07-13T05:31:18;16.30;99.90
23079;DHT22;11707;50.830;4.364;2023-07-13T05:33:46;16.40;99.90
23079;DHT22;11707;50.830;4.364;2023-07-13T05:36:12;16.50;99.90
23079;DHT22;11707;50.830;4.364;2023-07-13T05:38:37;16.50;99.90
23079;DHT22;11707;50.830;4.364;2023-07-13T05:41:03;16.30;99.90
23079;DHT22;11707;50.830;4.364;2023-07-13T05:43:31;16.50;99.90
23079;DHT22;11707;50.830;4.364;2023-07-13T05:45:57;16.60;99.90
23079;DHT22;11707;50.830;4.364;2023-07-13T05:48:23;16.70;99.90
23079;DHT22;11707;50.830;4.364;2023-07-13T05:50:49;16.60;99.90
23079;DHT22;11707;50.830;4.364;2023-07-13T05:53:15;16.60;99.90
23079;DHT22;11707;50.830;4.364;2023-07-13T05:55:45;16.80;99.90
23079;DHT22;11707;50.830;4.364;2023-07-13T05:58:19;16.60;99.90
23079;DHT22;11707;50.830;4.364;2023-07-13T06:00:48;16.60;99.90
23079;DHT22;11707;50.830;4.364;2023-07-13T06:03:16;16.40;99.90
23079;DHT22;11707;50.830;4.364;2023-07-13T06:05:41;16.40;99.90
23079;DHT22;11707;50.830;4.364;2023-07-13T06:08:07;16.50;99.90
23079;DHT22;11707;50.830;4.364;2023-07-13T06:10:34;16.60;99.90
23079;DHT22;11707;50.830;4.364;2023-07-13T06:13:00;16.80;99.90
23079;DHT22;11707;50.830;4.364;2023-07-13T06:15:26;16.80;99.90
23079;DHT22;11707;50.830;4.364;2023-07-13T06:17:54;16.70;99.90
23079;DHT22;11707;50.830;4.364;2023-07-13T06:20:19;16.60;99.90
23079;DHT22;11707;50.830;4.364;2023-07-13T06:22:45;16.50;99.90
23079;DHT22;11707;50.830;4.364;2023-07-13T06:25:11;16.50;99.90
23079;DHT22;11707;50.830;4.364;2023-07-13T06:27:36;16.60;99.90
23079;DHT22;11707;50.830;4.364;2023-07-13T06:30:02;16.90;99.90
23079;DHT22;11707;50.830;4.364;2023-07-13T06:32:30;16.90;99.90
23079;DHT22;11707;50.830;4.364;2023-07-13T06:34:55;16.90;99.90
23079;DHT22;11707;50.830;4.364;2023-07-13T06:37:21;16.90;99.90
23079;DHT22;11707;50.830;4.364;2023-07-13T06:39:49;16.80;99.90
23079;DHT22;11707;50.830;4.364;2023-07-13T06:42:17;16.80;99.90
23079;DHT22;11707;50.830;4.364;2023-07-13T06:44:43;16.80;99.90
23079;DHT22;11707;50.830;4.364;2023-07-13T06:47:11;16.80;99.90
23079;DHT22;11707;50.830;4.364;2023-07-13T06:49:39;17.00;99.90
23079;DHT22;11707;50.830;4.364;2023-07-13T06:52:05;17.10;99.90
23079;DHT22;11707;50.830;4.364;2023-07-13T06:54:31;17.40;99.90
23079;DHT22;11707;50.830;4.364;2023-07-13T06:56:56;17.50;97.60
23079;DHT22;11707;50.830;4.364;2023-07-13T06:59:22;17.30;98.90
23079;DHT22;11707;50.830;4.364;2023-07-13T07:01:47;17.30;99.80
23079;DHT22;11707;50.830;4.364;2023-07-13T07:04:13;17.40;99.90
23079;DHT22;11707;50.830;4.364;2023-07-13T07:06:39;17.50;98.20
23079;DHT22;11707;50.830;4.364;2023-07-13T07:09:04;17.70;94.80
23079;DHT22;11707;50.830;4.364;2023-07-13T07:11:30;17.60;94.80
23079;DHT22;11707;50.830;4.364;2023-07-13T07:13:56;17.50;96.30
23079;DHT22;11707;50.830;4.364;2023-07-13T07:16:22;17.50;96.60
23079;DHT22;11707;50.830;4.364;2023-07-13T07:18:48;17.50;97.80
23079;DHT22;11707;50.830;4.364;2023-07-13T07:21:14;17.80;95.10
23079;DHT22;11707;50.830;4.364;2023-07-13T07:23:40;18.00;91.50
23079;DHT22;11707;50.830;4.364;2023-07-13T07:26:06;18.10;89.80
23079;DHT22;11707;50.830;4.364;2023-07-13T07:28:37;18.20;84.90
23079;DHT22;11707;50.830;4.364;2023-07-13T07:31:03;18.20;83.40
23079;DHT22;11707;50.830;4.364;2023-07-13T07:33:28;18.10;85.30
23079;DHT22;11707;50.830;4.364;2023-07-13T07:35:56;18.20;84.20
23079;DHT22;11707;50.830;4.364;2023-07-13T07:38:22;18.40;80.90
23079;DHT22;11707;50.830;4.364;2023-07-13T07:40:47;18.60;73.50
23079;DHT22;11707;50.830;4.364;2023-07-13T07:43:13;18.50;72.10
23079;DHT22;11707;50.830;4.364;2023-07-13T07:45:39;18.50;69.70
23079;DHT22;11707;50.830;4.364;2023-07-13T07:48:06;18.40;73.50
23079;DHT22;11707;50.830;4.364;2023-07-13T07:50:32;18.30;78.00
23079;DHT22;11707;50.830;4.364;2023-07-13T07:53:00;18.30;80.70
23079;DHT22;11707;50.830;4.364;2023-07-13T07:55:27;18.40;76.20
23079;DHT22;11707;50.830;4.364;2023-07-13T07:57:53;18.60;67.40
23079;DHT22;11707;50.830;4.364;2023-07-13T08:00:19;18.90;56.80
23079;DHT22;11707;50.830;4.364;2023-07-13T08:02:47;19.10;48.60
23079;DHT22;11707;50.830;4.364;2023-07-13T08:05:14;18.90;48.80
23079;DHT22;11707;50.830;4.364;2023-07-13T08:07:44;18.80;51.20
23079;DHT22;11707;50.830;4.364;2023-07-13T08:10:09;18.60;61.30
23079;DHT22;11707;50.830;4.364;2023-07-13T08:12:37;18.60;64.00
23079;DHT22;11707;50.830;4.364;2023-07-13T08:15:03;18.70;66.80
23079;DHT22;11707;50.830;4.364;2023-07-13T08:17:29;18.70;55.10
23079;DHT22;11707;50.830;4.364;2023-07-13T08:19:55;18.60;61.40
23079;DHT22;11707;50.830;4.364;2023-07-13T08:22:20;18.90;58.00
23079;DHT22;11707;50.830;4.364;2023-07-13T08:24:46;18.80;56.60
23079;DHT22;11707;50.830;4.364;2023-07-13T08:27:13;19.10;49.10
23079;DHT22;11707;50.830;4.364;2023-07-13T08:29:39;19.30;39.40
23079;DHT22;11707;50.830;4.364;2023-07-13T08:32:06;19.40;36.40
23079;DHT22;11707;50.830;4.364;2023-07-13T08:34:35;19.40;32.80
23079;DHT22;11707;50.830;4.364;2023-07-13T08:37:03;19.20;30.30
23079;DHT22;11707;50.830;4.364;2023-07-13T08:39:30;19.20;30.30
23079;DHT22;11707;50.830;4.364;2023-07-13T08:42:05;19.00;36.80
23079;DHT22;11707;50.830;4.364;2023-07-13T08:44:44;19.00;36.70
23079;DHT22;11707;50.830;4.364;2023-07-13T08:47:15;19.00;37.50
23079;DHT22;11707;50.830;4.364;2023-07-13T08:49:41;18.90;44.00
23079;DHT22;11707;50.830;4.364;2023-07-13T08:52:35;19.00;28.40
23079;DHT22;11707;50.830;4.364;2023-07-13T08:55:16;18.80;34.60
23079;DHT22;11707;50.830;4.364;2023-07-13T08:57:45;19.00;33.70
23079;DHT22;11707;50.830;4.364;2023-07-13T09:00:12;19.50;20.50
23079;DHT22;11707;50.830;4.364;2023-07-13T09:05:18;19.90;1.00
23079;DHT22;11707;50.830;4.364;2023-07-13T09:08:07;19.90;1.00
23079;DHT22;11707;50.830;4.364;2023-07-13T09:13:42;19.80;1.00
23079;DHT22;11707;50.830;4.364;2023-07-13T09:16:10;19.60;1.00
23079;DHT22;11707;50.830;4.364;2023-07-13T09:18:44;19.70;1.00
23079;DHT22;11707;50.830;4.364;2023-07-13T09:23:36;19.90;1.00
23079;DHT22;11707;50.830;4.364;2023-07-13T09:26:22;20.00;1.00
23079;DHT22;11707;50.830;4.364;2023-07-13T09:29:03;20.20;1.00
23079;DHT22;11707;50.830;4.364;2023-07-13T09:31:37;20.20;1.00
23079;DHT22;11707;50.830;4.364;2023-07-13T09:34:14;20.20;1.00
23079;DHT22;11707;50.830;4.364;2023-07-13T09:36:39;20.20;1.00
23079;DHT22;11707;50.830;4.364;2023-07-13T09:39:09;20.00;1.00
23079;DHT22;11707;50.830;4.364;2023-07-13T09:41:54;20.10;1.00
23079;DHT22;11707;50.830;4.364;2023-07-13T09:44:37;20.20;1.00
23079;DHT22;11707;50.830;4.364;2023-07-13T09:47:17;20.00;1.00
23079;DHT22;11707;50.830;4.364;2023-07-13T09:49:44;19.90;1.00
23079;DHT22;11707;50.830;4.364;2023-07-13T09:52:15;19.90;1.00
23079;DHT22;11707;50.830;4.364;2023-07-13T09:54:44;20.20;1.00
23079;DHT22;11707;50.830;4.364;2023-07-13T09:57:18;20.30;1.00
23079;DHT22;11707;50.830;4.364;2023-07-13T09:59:48;20.40;1.00
23079;DHT22;11707;50.830;4.364;2023-07-13T10:05:03;20.70;1.00
23079;DHT22;11707;50.830;4.364;2023-07-13T10:07:31;20.50;1.00
23079;DHT22;11707;50.830;4.364;2023-07-13T10:09:58;20.40;1.00
23079;DHT22;11707;50.830;4.364;2023-07-13T10:12:27;20.30;1.00
23079;DHT22;11707;50.830;4.364;2023-07-13T10:14:58;20.40;99.90
23079;DHT22;11707;50.830;4.364;2023-07-13T10:17:32;20.50;1.00
23079;DHT22;11707;50.830;4.364;2023-07-13T10:20:07;20.70;99.90
23079;DHT22;11707;50.830;4.364;2023-07-13T10:25:18;21.50;99.90
23079;DHT22;11707;50.830;4.364;2023-07-13T10:27:45;21.50;99.90
23079;DHT22;11707;50.830;4.364;2023-07-13T10:30:33;21.40;99.90
23079;DHT22;11707;50.830;4.364;2023-07-13T10:33:05;21.80;99.90
23079;DHT22;11707;50.830;4.364;2023-07-13T10:35:34;21.60;99.90
23079;DHT22;11707;50.830;4.364;2023-07-13T10:38:10;21.90;99.90
23079;DHT22;11707;50.830;4.364;2023-07-13T10:40:37;22.10;1.00
23079;DHT22;11707;50.830;4.364;2023-07-13T10:43:09;21.50;99.90
23079;DHT22;11707;50.830;4.364;2023-07-13T10:45:37;21.40;99.90
23079;DHT22;11707;50.830;4.364;2023-07-13T10:48:04;21.40;99.90
23079;DHT22;11707;50.830;4.364;2023-07-13T10:50:30;21.30;99.90
23079;DHT22;11707;50.830;4.364;2023-07-13T11:04:00;21.00;99.90
23079;DHT22;11707;50.830;4.364;2023-07-13T11:08:56;21.30;99.90
23079;DHT22;11707;50.830;4.364;2023-07-13T11:19:37;22.30;1.00
23079;DHT22;11707;50.830;4.364;2023-07-13T11:21:31;22.20;1.00
23079;DHT22;11707;50.830;4.364;2023-07-13T11:29:36;22.70;99.90
23079;DHT22;11707;50.830;4.364;2023-07-13T11:32:23;22.50;99.90
23079;DHT22;11707;50.830;4.364;2023-07-13T11:34:53;22.10;99.90
23079;DHT22;11707;50.830;4.364;2023-07-13T11:37:19;21.80;1.00
23079;DHT22;11707;50.830;4.364;2023-07-13T11:39:47;21.40;99.90
23079;DHT22;11707;50.830;4.364;2023-07-13T11:42:18;21.50;99.90
23079;DHT22;11707;50.830;4.364;2023-07-13T11:44:48;21.70;1.00
23079;DHT22;11707;50.830;4.364;2023-07-13T11:47:22;21.60;99.90
23079;DHT22;11707;50.830;4.364;2023-07-13T11:49:54;21.30;58.40
23079;DHT22;11707;50.830;4.364;2023-07-13T11:52:32;21.30;99.90
23079;DHT22;11707;50.830;4.364;2023-07-13T11:55:12;21.20;99.90
23079;DHT22;11707;50.830;4.364;2023-07-13T11:57:54;21.10;99.90
23079;DHT22;11707;50.830;4.364;2023-07-13T12:00:25;21.10;99.90
23079;DHT22;11707;50.830;4.364;2023-07-13T12:02:54;21.20;99.90
23079;DHT22;11707;50.830;4.364;2023-07-13T12:05:21;21.50;99.90
23079;DHT22;11707;50.830;4.364;2023-07-13T12:07:48;21.40;84.50
23079;DHT22;11707;50.830;4.364;2023-07-13T12:10:28;21.20;99.90
23079;DHT22;11707;50.830;4.364;2023-07-13T12:13:00;21.00;99.90
23079;DHT22;11707;50.830;4.364;2023-07-13T12:15:37;20.80;99.90
23079;DHT22;11707;50.830;4.364;2023-07-13T12:18:22;20.70;99.90
23079;DHT22;11707;50.830;4.364;2023-07-13T12:20:50;20.80;99.90
23079;DHT22;11707;50.830;4.364;2023-07-13T12:25:59;21.00;99.90
23079;DHT22;11707;50.830;4.364;2023-07-13T12:28:37;20.90;99.90
23079;DHT22;11707;50.830;4.364;2023-07-13T12:31:06;20.40;99.90
23079;DHT22;11707;50.830;4.364;2023-07-13T12:33:33;19.80;1.00
23079;DHT22;11707;50.830;4.364;2023-07-13T12:36:03;19.10;1.00
23079;DHT22;11707;50.830;4.364;2023-07-13T12:38:31;18.50;52.20
23079;DHT22;11707;50.830;4.364;2023-07-13T12:40:58;18.00;93.10
23079;DHT22;11707;50.830;4.364;2023-07-13T12:43:24;17.90;99.90
23079;DHT22;11707;50.830;4.364;2023-07-13T12:48:25;17.80;99.90
23079;DHT22;11707;50.830;4.364;2023-07-13T12:50:54;17.60;99.90
23079;DHT22;11707;50.830;4.364;2023-07-13T12:53:28;17.40;99.90
23079;DHT22;11707;50.830;4.364;2023-07-13T12:56:02;17.10;99.90
23079;DHT22;11707;50.830;4.364;2023-07-13T12:58:40;16.90;99.90
23079;DHT22;11707;50.830;4.364;2023-07-13T13:01:15;16.90;99.90
23079;DHT22;11707;50.830;4.364;2023-07-13T13:03:50;16.90;99.90
23079;DHT22;11707;50.830;4.364;2023-07-13T13:08:50;17.30;99.90
23079;DHT22;11707;50.830;4.364;2023-07-13T13:11:17;18.00;99.90
23079;DHT22;11707;50.830;4.364;2023-07-13T13:13:43;19.10;99.90
23079;DHT22;11707;50.830;4.364;2023-07-13T13:18:49;20.10;63.10
23079;DHT22;11707;50.830;4.364;2023-07-13T13:21:16;19.60;41.30
23079;DHT22;11707;50.830;4.364;2023-07-13T13:23:42;19.40;62.30
23079;DHT22;11707;50.830;4.364;2023-07-13T13:26:11;19.40;50.50
23079;DHT22;11707;50.830;4.364;2023-07-13T13:28:39;19.50;58.70
23079;DHT22;11707;50.830;4.364;2023-07-13T13:31:05;20.00;20.10
23079;DHT22;11707;50.830;4.364;2023-07-13T13:33:35;20.10;18.80
23079;DHT22;11707;50.830;4.364;2023-07-13T13:36:02;20.20;26.60
23079;DHT22;11707;50.830;4.364;2023-07-13T13:38:37;20.70;12.70
23079;DHT22;11707;50.830;4.364;2023-07-13T13:41:05;21.40;1.00
23079;DHT22;11707;50.830;4.364;2023-07-13T13:43:32;22.10;1.00
23079;DHT22;11707;50.830;4.364;2023-07-13T13:45:59;22.70;99.90
23079;DHT22;11707;50.830;4.364;2023-07-13T13:48:35;23.00;99.90
23079;DHT22;11707;50.830;4.364;2023-07-13T13:51:13;22.90;99.90
23079;DHT22;11707;50.830;4.364;2023-07-13T13:53:45;22.30;99.90
23079;DHT22;11707;50.830;4.364;2023-07-13T13:56:12;21.90;99.90
23079;DHT22;11707;50.830;4.364;2023-07-13T13:58:38;21.70;99.90
23079;DHT22;11707;50.830;4.364;2023-07-13T14:01:04;21.60;99.90
23079;DHT22;11707;50.830;4.364;2023-07-13T14:03:35;21.60;99.90
23079;DHT22;11707;50.830;4.364;2023-07-13T14:06:01;21.40;99.90
23079;DHT22;11707;50.830;4.364;2023-07-13T14:08:27;21.30;99.90
23079;DHT22;11707;50.830;4.364;2023-07-13T14:10:57;21.10;99.90
23079;DHT22;11707;50.830;4.364;2023-07-13T14:13:50;21.20;99.90
23079;DHT22;11707;50.830;4.364;2023-07-13T14:16:19;21.60;99.90
23079;DHT22;11707;50.830;4.364;2023-07-13T14:18:47;21.60;1.00
23079;DHT22;11707;50.830;4.364;2023-07-13T14:21:22;21.50;99.90
23079;DHT22;11707;50.830;4.364;2023-07-13T14:23:48;21.70;99.90
23079;DHT22;11707;50.830;4.364;2023-07-13T14:26:28;21.60;99.90
23079;DHT22;11707;50.830;4.364;2023-07-13T14:28:57;21.50;99.90
23079;DHT22;11707;50.830;4.364;2023-07-13T14:31:24;21.50;99.90
23079;DHT22;11707;50.830;4.364;2023-07-13T14:33:50;21.50;99.90
23079;DHT22;11707;50.830;4.364;2023-07-13T14:36:40;21.30;99.90
23079;DHT22;11707;50.830;4.364;2023-07-13T14:39:15;21.20;99.90
23079;DHT22;11707;50.830;4.364;2023-07-13T14:41:42;21.30;99.90
23079;DHT22;11707;50.830;4.364;2023-07-13T14:44:15;21.40;77.80
23079;DHT22;11707;50.830;4.364;2023-07-13T14:46:41;21.80;99.90
23079;DHT22;11707;50.830;4.364;2023-07-13T14:51:55;23.40;99.90
23079;DHT22;11707;50.830;4.364;2023-07-13T14:54:23;24.20;1.00
23079;DHT22;11707;50.830;4.364;2023-07-13T14:56:51;24.10;99.90
23079;DHT22;11707;50.830;4.364;2023-07-13T14:59:19;24.50;28.50
23079;DHT22;11707;50.830;4.364;2023-07-13T15:01:46;23.90;99.90
23079;DHT22;11707;50.830;4.364;2023-07-13T15:04:12;24.20;99.90
23079;DHT22;11707;50.830;4.364;2023-07-13T15:06:59;23.60;99.90
23079;DHT22;11707;50.830;4.364;2023-07-13T15:09:25;23.70;99.90
23079;DHT22;11707;50.830;4.364;2023-07-13T15:11:54;24.00;99.90
23079;DHT22;11707;50.830;4.364;2023-07-13T15:14:19;24.70;99.90
23079;DHT22;11707;50.830;4.364;2023-07-13T15:16:50;25.50;99.90
23079;DHT22;11707;50.830;4.364;2023-07-13T15:19:17;25.10;99.90
23079;DHT22;11707;50.830;4.364;2023-07-13T15:21:43;25.10;99.90
23079;DHT22;11707;50.830;4.364;2023-07-13T15:24:11;25.80;94.20
23079;DHT22;11707;50.830;4.364;2023-07-13T15:26:36;26.10;99.90
23079;DHT22;11707;50.830;4.364;2023-07-13T15:29:03;26.00;65.30
23079;DHT22;11707;50.830;4.364;2023-07-13T15:31:29;26.30;99.90
23079;DHT22;11707;50.830;4.364;2023-07-13T15:33:58;25.20;99.90
23079;DHT22;11707;50.830;4.364;2023-07-13T15:36:25;25.20;56.20
23079;DHT22;11707;50.830;4.364;2023-07-13T15:38:55;24.60;99.90
23079;DHT22;11707;50.830;4.364;2023-07-13T15:41:27;24.20;1.00
23079;DHT22;11707;50.830;4.364;2023-07-13T15:43:56;23.60;99.90
23079;DHT22;11707;50.830;4.364;2023-07-13T15:46:27;23.50;1.00
23079;DHT22;11707;50.830;4.364;2023-07-13T15:48:54;23.50;99.90
23079;DHT22;11707;50.830;4.364;2023-07-13T15:51:29;23.50;99.90
23079;DHT22;11707;50.830;4.364;2023-07-13T15:53:59;23.50;99.90
23079;DHT22;11707;50.830;4.364;2023-07-13T15:56:28;23.50;99.90
23079;DHT22;11707;50.830;4.364;2023-07-13T15:58:56;23.40;41.80
23079;DHT22;11707;50.830;4.364;2023-07-13T16:01:23;23.40;99.90
23079;DHT22;11707;50.830;4.364;2023-07-13T16:03:50;23.50;1.00
23079;DHT22;11707;50.830;4.364;2023-07-13T16:06:33;23.50;1.00
23079;DHT22;11707;50.830;4.364;2023-07-13T16:09:03;23.40;99.90
23079;DHT22;11707;50.830;4.364;2023-07-13T16:11:36;23.10;99.90
23079;DHT22;11707;50.830;4.364;2023-07-13T16:14:02;23.00;1.00
23079;DHT22;11707;50.830;4.364;2023-07-13T16:16:31;23.10;99.90
23079;DHT22;11707;50.830;4.364;2023-07-13T16:18:59;23.10;99.90
23079;DHT22;11707;50.830;4.364;2023-07-13T16:21:30;22.90;99.90
23079;DHT22;11707;50.830;4.364;2023-07-13T16:23:58;22.80;1.00
23079;DHT22;11707;50.830;4.364;2023-07-13T16:26:38;23.00;1.00
23079;DHT22;11707;50.830;4.364;2023-07-13T16:29:24;23.10;99.90
23079;DHT22;11707;50.830;4.364;2023-07-13T16:34:31;23.10;1.00
23079;DHT22;11707;50.830;4.364;2023-07-13T16:36:58;23.30;99.90
23079;DHT22;11707;50.830;4.364;2023-07-13T16:39:25;23.50;99.90
23079;DHT22;11707;50.830;4.364;2023-07-13T16:41:53;23.60;1.00